Time;durP1;ratioP1;P1;durP2;ratioP2;P2;SDS_P1;SDS_P2;PMS_P1;PMS_P2;Temp;Humidity;BMP_temperature;BMP_pressure;BME280_temperature;BME280_humidity;BME280_pressure;Samples;Min_cycle;Max_cycle;Signal;HPM_P1;HPM_P2
2021/03/22 00:00:53;;;;;;;14.98;11.18;;;;;;;3.76;53.90;99653.53;1730215;81;21618;-46
2021/03/22 00:03:22;;;;;;;14.45;11.43;;;;;;;3.76;53.92;99664.08;1727729;81;21567;-48
2021/03/22 00:05:52;;;;;;;15.23;10.30;;;;;;;3.75;53.77;99661.02;1731969;81;21117;-50
2021/03/22 00:08:20;;;;;;;14.58;11.38;;;;;;;3.71;53.91;99656.83;1736589;81;21147;-49
2021/03/22 00:10:50;;;;;;;12.13;10.15;;;;;;;3.68;54.02;99653.86;1670250;84;21629;-49
2021/03/22 00:13:20;;;;;;;14.28;10.60;;;;;;;3.69;53.94;99655.56;1670380;83;21182;-50
2021/03/22 00:15:50;;;;;;;13.65;10.28;;;;;;;3.68;53.89;99653.01;1728411;80;22017;-52
2021/03/22 00:18:22;;;;;;;12.35;9.48;;;;;;;3.69;53.88;99649.44;1735367;80;21617;-49
2021/03/22 00:20:52;;;;;;;17.80;13.83;;;;;;;3.68;53.80;99641.99;1740130;80;21692;-50
2021/03/22 00:23:21;;;;;;;15.63;12.40;;;;;;;3.67;53.79;99640.26;1734167;80;21715;-52
2021/03/22 00:25:50;;;;;;;12.85;10.72;;;;;;;3.64;53.70;99638.23;1725195;81;21316;-51
2021/03/22 00:28:19;;;;;;;13.32;10.53;;;;;;;3.59;53.68;99633.62;1741784;80;21107;-46
2021/03/22 00:30:46;;;;;;;13.58;10.43;;;;;;;3.58;53.77;99638.05;1729847;80;21142;-46
2021/03/22 00:33:15;;;;;;;15.25;11.38;;;;;;;3.58;53.82;99634.52;1731505;81;21146;-46
2021/03/22 00:35:45;;;;;;;17.10;9.63;;;;;;;3.56;53.89;99635.08;1726866;81;21171;-50
2021/03/22 00:38:13;;;;;;;13.68;11.18;;;;;;;3.55;53.91;99635.98;1740057;80;21146;-49
2021/03/22 00:40:42;;;;;;;11.70;8.90;;;;;;;3.52;53.92;99630.38;1746021;80;21166;-49
2021/03/22 00:43:10;;;;;;;16.25;11.08;;;;;;;3.51;54.12;99635.27;1746592;80;21161;-48
2021/03/22 00:45:41;;;;;;;14.03;10.38;;;;;;;3.52;54.30;99632.16;1689753;82;21150;-46
2021/03/22 00:48:20;;;;;;;16.00;10.63;;;;;;;3.51;54.38;99628.67;1675415;83;21676;-47
2021/03/22 00:51:04;;;;;;;15.43;11.48;;;;;;;3.52;54.39;99638.75;1733958;80;21189;-48
2021/03/22 00:53:50;;;;;;;13.32;10.23;;;;;;;3.52;54.49;99642.23;1723849;81;21162;-47
2021/03/22 00:56:17;;;;;;;15.28;10.78;;;;;;;3.55;54.52;99638.61;1743085;80;21578;-47
2021/03/22 00:58:45;;;;;;;15.35;10.23;;;;;;;3.53;54.49;99628.59;1737713;80;21162;-46
2021/03/22 01:01:13;;;;;;;15.25;10.60;;;;;;;3.52;54.57;99630.38;1735429;80;21138;-49
2021/03/22 01:03:40;;;;;;;15.48;10.70;;;;;;;3.50;54.66;99625.63;1736567;80;21562;-48
2021/03/22 01:06:08;;;;;;;15.05;11.80;;;;;;;3.52;54.84;99622.94;1735481;80;21173;-50
2021/03/22 01:08:38;;;;;;;15.90;11.78;;;;;;;3.52;54.86;99619.83;1748545;80;21134;-47
2021/03/22 01:11:12;;;;;;;16.35;12.33;;;;;;;3.51;54.88;99613.33;1724962;81;21494;-47
2021/03/22 01:13:56;;;;;;;15.50;10.18;;;;;;;3.50;54.97;99615.55;1737428;80;21173;-52
2021/03/22 01:16:28;;;;;;;13.48;10.03;;;;;;;3.50;54.96;99612.91;1698743;82;21162;-52
2021/03/22 01:18:56;;;;;;;14.80;11.00;;;;;;;3.50;55.21;99614.23;1688686;83;21181;-50
2021/03/22 01:21:36;;;;;;;14.30;10.58;;;;;;;3.51;55.62;99614.64;1748822;80;21140;-53
2021/03/22 01:24:04;;;;;;;15.55;10.90;;;;;;;3.52;55.44;99618.52;1747199;80;21130;-52
2021/03/22 01:26:33;;;;;;;15.40;10.72;;;;;;;3.53;55.37;99614.09;1743718;80;21149;-52
2021/03/22 01:29:09;;;;;;;18.92;11.65;;;;;;;3.53;55.42;99613.66;1739003;80;21131;-50
2021/03/22 01:31:38;;;;;;;15.25;10.98;;;;;;;3.53;55.51;99614.09;1731053;80;21138;-50
2021/03/22 01:34:05;;;;;;;14.47;11.08;;;;;;;3.51;55.50;99615.49;1740295;80;21158;-50
2021/03/22 01:36:33;;;;;;;15.20;11.53;;;;;;;3.49;55.60;99614.70;1746481;80;21119;-51
2021/03/22 01:39:14;;;;;;;12.73;9.78;;;;;;;3.48;55.62;99618.27;1741771;80;21170;-52
2021/03/22 01:41:59;;;;;;;14.30;11.53;;;;;;;3.49;55.53;99619.97;1676516;84;21162;-48
2021/03/22 01:47:20;;;;;;;14.43;10.78;;;;;;;3.56;55.56;99613.52;1797497;78;22925;-46
2021/03/22 01:50:00;;;;;;;14.45;10.23;;;;;;;3.51;55.52;99610.22;1780661;78;21094;-46
2021/03/22 01:52:28;;;;;;;14.07;10.10;;;;;;;3.50;55.44;99615.08;1779228;80;21161;-46
2021/03/22 01:57:35;;;;;;;14.00;10.75;;;;;;;3.47;55.23;99604.67;1759172;79;23317;-43
2021/03/22 02:00:29;;;;;;;14.28;11.18;;;;;;;3.42;55.41;99614.09;1737543;82;21589;-47
2021/03/22 02:03:07;;;;;;;14.43;10.65;;;;;;;3.42;55.57;99610.60;1738657;80;21126;-44
2021/03/22 02:05:37;;;;;;;14.55;11.43;;;;;;;3.44;55.64;99609.61;1728188;80;21106;-48
2021/03/22 02:08:13;;;;;;;13.75;9.30;;;;;;;3.45;55.72;99611.78;1739064;80;21132;-49
2021/03/22 02:10:42;;;;;;;14.20;10.48;;;;;;;3.46;55.69;99612.20;1722363;80;21199;-53
2021/03/22 02:13:10;;;;;;;12.93;9.60;;;;;;;3.45;55.66;99605.19;1736764;80;21138;-54
2021/03/22 02:15:40;;;;;;;11.63;10.20;;;;;;;3.43;55.72;99605.75;1743051;80;21106;-46
2021/03/22 02:18:22;;;;;;;12.95;9.48;;;;;;;3.42;55.54;99604.02;1733131;81;21609;-49
2021/03/22 02:21:27;;;;;;;14.33;9.75;;;;;;;3.38;55.48;99599.35;1733099;82;21157;-48
2021/03/22 02:24:35;;;;;;;14.65;10.20;;;;;;;3.37;55.58;99607.31;1739217;80;21154;-48
2021/03/22 02:27:44;;;;;;;12.35;9.08;;;;;;;3.37;55.72;99608.62;1681111;83;21554;-48
2021/03/22 02:30:44;;;;;;;12.23;9.98;;;;;;;3.38;55.86;99607.26;1702423;82;21664;-48
2021/03/22 02:34:01;;;;;;;12.58;10.72;;;;;;;3.40;55.93;99607.17;1694825;82;21232;-49
2021/03/22 02:36:51;;;;;;;14.00;11.03;;;;;;;3.39;56.03;99598.41;1697343;82;21157;-49
2021/03/22 02:39:20;;;;;;;;;;;;;;;3.40;56.07;99595.31;1703593;82;21525;-46
2021/03/22 02:41:54;;;;;;;12.90;9.18;;;;;;;3.37;56.16;99585.76;1692508;82;20187;-47
2021/03/22 02:44:34;;;;;;;13.53;10.58;;;;;;;3.36;56.20;99584.52;1666323;84;21185;-49
2021/03/22 02:47:11;;;;;;;14.10;10.40;;;;;;;3.34;56.26;99585.89;1696195;83;21122;-48
2021/03/22 02:49:39;;;;;;;14.33;11.33;;;;;;;3.33;56.23;99585.98;1695768;82;21126;-49
2021/03/22 02:52:35;;;;;;;14.78;10.20;;;;;;;3.32;56.33;99581.14;1698748;82;21178;-50
2021/03/22 02:55:36;;;;;;;12.80;10.32;;;;;;;3.32;56.36;99586.88;1695148;83;21177;-47
2021/03/22 02:58:07;;;;;;;15.35;10.75;;;;;;;3.32;56.40;99579.83;1697206;82;21164;-49
2021/03/22 03:00:42;;;;;;;13.40;9.63;;;;;;;3.32;56.38;99581.14;1700285;84;21172;-50
2021/03/22 03:03:12;;;;;;;14.50;10.85;;;;;;;3.33;56.48;99578.92;1697214;82;21161;-49
2021/03/22 03:05:40;;;;;;;15.50;10.85;;;;;;;3.35;56.61;99580.16;1689663;82;21161;-49
2021/03/22 03:08:11;;;;;;;16.20;11.93;;;;;;;3.36;56.73;99583.20;1697309;82;21181;-48
2021/03/22 03:10:39;;;;;;;18.60;11.25;;;;;;;3.37;56.86;99586.22;1706645;82;21219;-47
2021/03/22 03:13:06;;;;;;;17.62;11.40;;;;;;;3.36;56.84;99576.62;1701459;82;21157;-46
2021/03/22 03:15:36;;;;;;;18.32;11.97;;;;;;;3.35;56.89;99584.11;1696067;84;21620;-46
2021/03/22 03:18:04;;;;;;;18.02;11.53;;;;;;;3.35;56.95;99583.67;1699026;82;21174;-51
2021/03/22 03:20:32;;;;;;;15.20;12.05;;;;;;;3.35;56.96;99584.11;1704783;82;21156;-50
2021/03/22 03:23:00;;;;;;;15.20;10.48;;;;;;;3.34;56.96;99583.73;1698569;84;21589;-46
2021/03/22 03:25:28;;;;;;;15.78;12.18;;;;;;;3.34;57.04;99579.77;1698923;82;21177;-44
2021/03/22 03:27:56;;;;;;;16.23;11.83;;;;;;;3.33;57.07;99582.03;1695705;84;21157;-47
2021/03/22 03:30:27;;;;;;;18.45;13.40;;;;;;;3.30;57.08;99580.38;1697490;82;21903;-48
2021/03/22 03:32:54;;;;;;;17.35;13.32;;;;;;;3.29;57.07;99577.80;1698921;83;21161;-46
2021/03/22 03:35:25;;;;;;;17.55;12.80;;;;;;;3.27;57.09;99580.48;1692801;82;21197;-48
2021/03/22 03:37:54;;;;;;;18.12;12.63;;;;;;;3.27;57.14;99579.17;1695671;82;21177;-48
2021/03/22 03:40:28;;;;;;;16.82;12.43;;;;;;;3.27;57.14;99578.31;1693951;84;21169;-49
2021/03/22 03:42:56;;;;;;;20.30;12.63;;;;;;;3.25;57.28;99575.30;1688882;84;21137;-50
2021/03/22 03:45:26;;;;;;;15.23;11.28;;;;;;;3.25;57.44;99572.66;1696844;82;21157;-48
2021/03/22 03:47:55;;;;;;;15.40;11.38;;;;;;;3.27;57.46;99568.63;1687653;82;21165;-51
2021/03/22 03:50:27;;;;;;;14.63;10.65;;;;;;;3.28;57.46;99570.36;1700837;82;21173;-52
2021/03/22 03:52:54;;;;;;;;;;;;;;;3.27;57.43;99563.36;1698399;82;21157;-51
2021/03/22 03:55:26;;;;;;;14.18;10.25;;;;;;;3.22;57.45;99560.91;1698900;82;20188;-53
2021/03/22 03:57:54;;;;;;;15.70;11.78;;;;;;;3.21;57.54;99558.36;1694268;83;21184;-45
2021/03/22 04:00:30;;;;;;;13.80;10.63;;;;;;;3.20;57.60;99551.36;1683380;83;21177;-47
2021/03/22 04:02:58;;;;;;;15.10;10.65;;;;;;;3.19;57.65;99549.19;1667713;85;21178;-44
2021/03/22 04:05:27;;;;;;;15.28;11.80;;;;;;;3.18;57.68;99547.49;1697700;83;21577;-46
2021/03/22 04:07:55;;;;;;;15.30;11.38;;;;;;;3.19;57.75;99545.70;1690650;84;21146;-52
2021/03/22 04:10:23;;;;;;;15.25;11.08;;;;;;;3.19;57.76;99548.34;1685176;84;21202;-44
2021/03/22 04:12:51;;;;;;;15.75;11.60;;;;;;;3.20;57.75;99552.24;1689775;83;21201;-45
2021/03/22 04:15:18;;;;;;;16.62;11.43;;;;;;;3.19;57.84;99542.60;1672813;84;21220;-46
2021/03/22 04:17:47;;;;;;;16.60;12.55;;;;;;;3.20;57.89;99548.29;1684180;83;21186;-45
2021/03/22 04:20:16;;;;;;;19.10;13.72;;;;;;;3.19;57.83;99545.70;1684692;84;21181;-49
2021/03/22 04:22:44;;;;;;;17.17;13.00;;;;;;;3.19;57.78;99545.23;1694666;83;21158;-47
2021/03/22 04:25:14;;;;;;;19.52;14.30;;;;;;;3.19;57.90;99545.23;1665811;84;21183;-49
2021/03/22 04:27:42;;;;;;;25.05;17.30;;;;;;;3.20;57.98;99545.66;1673818;83;21167;-47
2021/03/22 04:30:10;;;;;;;27.25;17.55;;;;;;;3.20;57.98;99541.70;1671489;83;21582;-47
2021/03/22 04:32:38;;;;;;;23.75;16.55;;;;;;;3.19;57.93;99536.02;1671480;83;21174;-48
2021/03/22 04:35:07;;;;;;;21.93;15.20;;;;;;;3.18;57.96;99546.17;1669689;83;21170;-47
2021/03/22 04:37:35;;;;;;;19.67;14.63;;;;;;;3.18;58.01;99546.17;1702643;82;21660;-45
2021/03/22 04:40:06;;;;;;;18.00;13.35;;;;;;;3.18;58.15;99547.49;1687332;83;21158;-48
2021/03/22 04:42:34;;;;;;;;;;;;;;;3.19;58.25;99547.02;1683998;83;21122;-48
2021/03/22 04:45:04;;;;;;;16.70;12.50;;;;;;;3.18;58.36;99542.22;1671620;83;20197;-51
2021/03/22 04:47:31;;;;;;;15.45;11.20;;;;;;;3.17;58.40;99538.33;1694911;83;21148;-46
2021/03/22 04:49:59;;;;;;;14.80;11.70;;;;;;;3.17;58.50;99535.69;1695969;83;21161;-45
2021/03/22 04:52:27;;;;;;;20.60;13.68;;;;;;;3.20;58.45;99540.82;1686845;83;21132;-48
2021/03/22 04:54:54;;;;;;;16.40;12.03;;;;;;;3.21;58.51;99536.81;1673873;83;21554;-46
2021/03/22 04:57:30;;;;;;;17.73;13.13;;;;;;;3.21;58.58;99526.74;1664357;83;21166;-48
2021/03/22 04:59:58;;;;;;;17.95;12.50;;;;;;;3.21;58.58;99534.17;1670856;84;21130;-46
2021/03/22 05:02:26;;;;;;;15.95;13.20;;;;;;;3.21;58.68;99538.13;1672588;83;21134;-46
2021/03/22 05:04:55;;;;;;;15.70;12.00;;;;;;;3.20;58.60;99537.75;1668150;83;21971;-45
2021/03/22 05:07:23;;;;;;;17.07;13.45;;;;;;;3.21;58.67;99540.77;1664637;84;21183;-44
2021/03/22 05:09:50;;;;;;;16.05;11.53;;;;;;;3.22;58.67;99541.15;1664703;84;21186;-46
2021/03/22 05:12:18;;;;;;;15.03;11.93;;;;;;;3.22;58.58;99539.83;1672176;83;21162;-46
2021/03/22 05:14:46;;;;;;;16.85;13.15;;;;;;;3.25;58.61;99538.84;1670139;85;21170;-48
2021/03/22 05:17:13;;;;;;;14.65;11.88;;;;;;;3.27;58.65;99540.95;1695348;83;21169;-45
2021/03/22 05:19:41;;;;;;;16.10;11.88;;;;;;;3.28;58.98;99540.05;1663172;84;21696;-42
2021/03/22 05:22:09;;;;;;;17.70;12.65;;;;;;;3.32;59.05;99542.08;1687266;83;21516;-49
2021/03/22 05:24:36;;;;;;;18.40;13.43;;;;;;;3.36;59.21;99548.47;1684250;84;21185;-46
2021/03/22 05:27:06;;;;;;;18.00;12.98;;;;;;;3.40;58.97;99546.55;1683446;84;21162;-45
2021/03/22 05:29:34;;;;;;;17.15;12.98;;;;;;;3.44;58.83;99551.63;1687198;83;21178;-47
2021/03/22 05:32:02;;;;;;;18.90;13.22;;;;;;;3.45;58.94;99555.99;1723850;81;21677;-46
2021/03/22 05:34:30;;;;;;;16.80;12.23;;;;;;;3.49;58.80;99554.06;1724618;81;21582;-45
2021/03/22 05:36:58;;;;;;;20.77;12.75;;;;;;;3.51;58.70;99551.37;1735492;82;21137;-45
2021/03/22 05:39:25;;;;;;;16.95;12.28;;;;;;;3.53;58.67;99555.66;1729122;81;21564;-47
2021/03/22 05:42:23;;;;;;;18.12;13.22;;;;;;;3.55;58.46;99556.41;1705778;82;21158;-42
2021/03/22 05:45:00;;;;;;;17.37;12.78;;;;;;;3.58;58.28;99560.70;1717398;81;21165;-48
2021/03/22 05:47:42;;;;;;;19.77;13.05;;;;;;;3.60;58.14;99557.53;1726355;81;21126;-50
2021/03/22 05:50:20;;;;;;;20.48;13.83;;;;;;;3.64;58.35;99556.02;1653464;85;21193;-47
2021/03/22 05:53:05;;;;;;;18.02;12.63;;;;;;;3.73;58.16;99550.81;1764234;79;23142;-50
2021/03/22 05:55:45;;;;;;;17.77;12.58;;;;;;;3.71;58.09;99552.66;1733929;80;21169;-46
2021/03/22 05:58:44;;;;;;;19.02;12.68;;;;;;;3.74;57.81;99546.39;1740894;80;21138;-46
2021/03/22 06:01:30;;;;;;;16.73;11.63;;;;;;;3.78;57.50;99549.26;1738436;80;21637;-46
2021/03/22 06:04:21;;;;;;;16.00;11.43;;;;;;;3.80;57.38;99551.37;1737878;80;21130;-45
2021/03/22 06:06:49;;;;;;;14.93;10.78;;;;;;;3.84;57.18;99551.17;1730030;80;21109;-46
2021/03/22 06:09:48;;;;;;;17.40;11.60;;;;;;;3.85;56.93;99543.63;1729532;80;21150;-46
2021/03/22 06:12:42;;;;;;;15.68;11.25;;;;;;;3.87;56.65;99551.02;1718727;82;21287;-49
2021/03/22 06:15:39;;;;;;;14.90;11.05;;;;;;;3.90;56.54;99546.07;1709200;82;21141;-47
2021/03/22 06:18:30;;;;;;;17.15;11.22;;;;;;;3.93;56.38;99546.39;1714272;82;21153;-48
2021/03/22 06:21:04;;;;;;;16.93;11.95;;;;;;;3.97;56.42;99550.14;1711546;82;21138;-46
2021/03/22 06:23:43;;;;;;;13.72;11.53;;;;;;;4.02;55.96;99552.11;1715612;82;21117;-48
2021/03/22 06:26:34;;;;;;;15.10;11.10;;;;;;;4.06;55.64;99555.48;1708371;82;21272;-46
2021/03/22 06:29:10;;;;;;;14.70;11.38;;;;;;;4.08;55.44;99550.52;1703384;82;21573;-47
2021/03/22 06:31:44;;;;;;;16.12;11.88;;;;;;;4.18;55.24;99552.71;1763246;79;23461;-45
2021/03/22 06:34:14;;;;;;;15.45;11.20;;;;;;;4.14;55.02;99551.16;1731591;80;21125;-45
2021/03/22 06:36:43;;;;;;;13.15;9.90;;;;;;;4.15;54.68;99552.86;1739463;80;21134;-47
2021/03/22 06:39:11;;;;;;;16.97;11.12;;;;;;;4.18;54.71;99555.34;1734475;80;21445;-46
2021/03/22 06:41:50;;;;;;;15.28;10.93;;;;;;;4.23;54.41;99556.84;1713677;82;21145;-48
2021/03/22 06:44:32;;;;;;;12.88;9.80;;;;;;;4.27;54.15;99555.78;1739059;80;21703;-47
2021/03/22 06:47:13;;;;;;;14.98;10.85;;;;;;;4.31;54.09;99549.91;1737013;80;21573;-48
2021/03/22 06:49:44;;;;;;;14.35;10.50;;;;;;;4.36;53.95;99557.14;1728321;80;21173;-48
2021/03/22 06:52:16;;;;;;;13.98;10.80;;;;;;;4.43;53.77;99555.89;1735704;80;21118;-43
2021/03/22 06:54:57;;;;;;;15.08;10.80;;;;;;;4.45;53.40;99551.41;1734406;80;21294;-45
2021/03/22 06:57:26;;;;;;;13.68;10.05;;;;;;;4.51;53.40;99553.77;1745259;80;21631;-45
2021/03/22 07:00:15;;;;;;;14.50;9.55;;;;;;;4.57;52.79;99549.13;1733981;80;21622;-44
2021/03/22 07:03:00;;;;;;;14.00;10.63;;;;;;;4.61;52.85;99558.58;1736723;80;21291;-46
2021/03/22 07:05:33;;;;;;;13.03;10.15;;;;;;;4.63;52.28;99556.26;1738556;80;21125;-46
2021/03/22 07:08:05;;;;;;;15.93;10.28;;;;;;;4.64;52.24;99557.99;1736171;80;21663;-42
2021/03/22 07:10:54;;;;;;;13.98;10.20;;;;;;;4.62;52.32;99560.31;1719221;82;21218;-46
2021/03/22 07:13:28;;;;;;;13.15;9.90;;;;;;;4.60;52.60;99556.89;1689041;82;21153;-50
2021/03/22 07:16:12;;;;;;;12.93;9.43;;;;;;;4.61;52.68;99553.30;1715022;82;21272;-44
2021/03/22 07:18:41;;;;;;;13.28;11.30;;;;;;;4.60;52.91;99564.81;1687908;82;21727;-44
2021/03/22 07:21:18;;;;;;;14.47;9.80;;;;;;;4.57;53.32;99568.45;1717228;82;21581;-46
2021/03/22 07:24:08;;;;;;;14.33;10.70;;;;;;;4.52;53.62;99566.03;1715058;82;21114;-44
2021/03/22 07:26:53;;;;;;;15.25;9.95;;;;;;;4.51;53.71;99565.66;1716114;82;21152;-44
2021/03/22 07:29:43;;;;;;;13.32;9.38;;;;;;;4.50;54.05;99572.31;1684550;83;21145;-45
2021/03/22 07:32:48;;;;;;;13.68;10.05;;;;;;;4.51;53.98;99573.58;1711308;82;21153;-41
2021/03/22 07:35:43;;;;;;;10.80;8.65;;;;;;;4.54;54.05;99560.69;1713297;82;21490;-44
2021/03/22 07:38:33;;;;;;;14.93;8.65;;;;;;;4.58;54.17;99560.06;1713740;82;21562;-43
2021/03/22 07:41:10;;;;;;;10.75;8.58;;;;;;;4.63;54.02;99560.69;1708976;82;21120;-43
2021/03/22 07:44:20;;;;;;;12.30;9.13;;;;;;;4.67;53.89;99559.16;1705484;82;21181;-43
2021/03/22 07:47:08;;;;;;;15.28;9.23;;;;;;;4.70;53.97;99556.36;1701165;82;21640;-48
2021/03/22 07:50:09;;;;;;;12.23;9.15;;;;;;;4.75;53.80;99556.98;1710242;82;21162;-48
2021/03/22 07:52:55;;;;;;;11.18;8.58;;;;;;;4.77;53.95;99567.48;1637601;84;21347;-48
2021/03/22 07:56:01;;;;;;;12.28;8.78;;;;;;;4.79;54.41;99555.06;1631134;86;21476;-48
2021/03/22 07:58:46;;;;;;;11.12;8.75;;;;;;;4.82;54.56;99560.19;1629091;85;21180;-48
2021/03/22 08:01:49;;;;;;;11.95;9.33;;;;;;;4.86;54.39;99560.88;1632990;86;21314;-47
2021/03/22 08:04:50;;;;;;;11.80;8.80;;;;;;;4.89;54.68;99552.36;1632353;85;21165;-48
2021/03/22 08:07:51;;;;;;;15.13;11.15;;;;;;;4.92;55.08;99546.91;1764815;79;23081;-48
2021/03/22 08:10:48;;;;;;;13.25;9.50;;;;;;;4.92;54.89;99548.23;1723071;80;21564;-48
2021/03/22 08:13:28;;;;;;;11.80;8.75;;;;;;;4.98;54.86;99551.87;1714927;82;21697;-48
2021/03/22 08:16:25;;;;;;;13.53;9.80;;;;;;;5.06;54.71;99544.88;1718481;82;21161;-49
2021/03/22 08:19:07;;;;;;;12.03;8.98;;;;;;;5.11;54.84;99548.63;1717351;82;21110;-48
2021/03/22 08:21:42;;;;;;;12.70;8.85;;;;;;;5.17;54.63;99545.69;1715002;82;21172;-48
2021/03/22 08:24:35;;;;;;;11.20;8.95;;;;;;;5.21;54.38;99543.25;1714524;82;21121;-48
2021/03/22 08:27:14;;;;;;;11.00;8.50;;;;;;;5.22;54.30;99547.62;1710844;82;21149;-46
2021/03/22 08:30:09;;;;;;;11.03;9.13;;;;;;;5.25;54.40;99550.11;1655646;85;21286;-45
2021/03/22 08:33:27;;;;;;;10.75;8.70;;;;;;;5.25;54.62;99556.72;1610108;87;21188;-48
2021/03/22 08:36:27;;;;;;;10.75;8.48;;;;;;;5.26;54.53;99547.84;1612967;87;21645;-45
2021/03/22 08:39:10;;;;;;;10.55;8.30;;;;;;;5.25;54.56;99547.47;1650460;85;21149;-44
2021/03/22 08:42:05;;;;;;;16.32;12.25;;;;;;;5.32;54.73;99541.41;1801807;78;23082;-45
2021/03/22 08:44:39;;;;;;;10.80;8.88;;;;;;;5.35;54.93;99551.81;1772896;79;21181;-46
2021/03/22 08:47:50;;;;;;;10.85;8.35;;;;;;;5.42;54.87;99552.74;1773407;79;21160;-46
2021/03/22 08:50:25;;;;;;;12.70;9.75;;;;;;;5.47;54.76;99552.51;1727446;81;21332;-44
2021/03/22 08:52:59;;;;;;;12.43;8.55;;;;;;;5.49;54.90;99554.58;1726767;82;21695;-46
2021/03/22 08:58:29;;;;;;;9.65;7.67;;;;;;;5.47;55.44;99551.19;1812010;77;23678;-48
2021/03/22 09:01:09;;;;;;;10.75;7.90;;;;;;;5.43;55.48;99556.23;1809672;78;21109;-44
2021/03/22 09:03:43;;;;;;;10.65;8.05;;;;;;;5.39;55.70;99559.95;1714192;82;21188;-46
2021/03/22 09:09:09;;;;;;;11.53;8.03;;;;;;;5.34;57.05;99558.02;1795541;78;23131;-44
2021/03/22 09:11:51;;;;;;;12.05;8.48;;;;;;;5.22;57.07;99560.84;1745790;80;21176;-41
2021/03/22 09:14:36;;;;;;;9.40;6.90;;;;;;;5.22;56.96;99559.52;1772065;79;21119;-46
2021/03/22 09:17:07;;;;;;;11.08;8.25;;;;;;;5.26;57.57;99568.98;1736685;81;21150;-44
2021/03/22 09:19:43;;;;;;;9.00;6.67;;;;;;;5.25;57.46;99561.16;1710979;81;21602;-46
2021/03/22 09:22:18;;;;;;;9.70;7.67;;;;;;;5.24;57.36;99563.39;1701961;82;21154;-43
2021/03/22 09:24:47;;;;;;;10.15;7.37;;;;;;;5.24;57.50;99567.36;1718343;81;21177;-43
2021/03/22 09:27:20;;;;;;;9.65;7.35;;;;;;;5.23;57.69;99574.91;1713559;83;21126;-45
2021/03/22 09:29:51;;;;;;;9.63;7.65;;;;;;;5.16;56.92;99566.42;1710001;83;21138;-43
2021/03/22 09:32:32;;;;;;;10.03;7.67;;;;;;;4.98;58.13;99576.13;1738541;81;21169;-44
2021/03/22 09:35:21;;;;;;;8.83;7.22;;;;;;;4.80;58.57;99573.94;1735281;81;21122;-44
2021/03/22 09:38:01;;;;;;;10.75;8.18;;;;;;;4.70;58.92;99579.28;1704952;82;21165;-46
2021/03/22 09:40:35;;;;;;;10.58;8.63;;;;;;;4.65;59.22;99576.86;1714766;83;21668;-44
2021/03/22 09:43:14;;;;;;;9.70;8.28;;;;;;;4.64;59.31;99576.48;1718179;83;21559;-48
2021/03/22 09:46:03;;;;;;;10.60;8.23;;;;;;;4.62;59.33;99577.48;1711310;83;21113;-48
2021/03/22 09:48:41;;;;;;;12.05;9.30;;;;;;;4.58;59.57;99585.15;1713326;83;21133;-48
2021/03/22 09:51:21;;;;;;;9.88;8.53;;;;;;;4.53;59.95;99588.85;1690234;83;21217;-48
2021/03/22 09:54:01;;;;;;;9.65;8.30;;;;;;;4.49;60.18;99587.30;1712030;83;21632;-49
2021/03/22 09:56:41;;;;;;;9.63;7.80;;;;;;;4.47;60.36;99594.44;1713898;83;21193;-47
2021/03/22 09:59:32;;;;;;;10.05;7.90;;;;;;;4.53;60.57;99589.32;1711877;83;21122;-48
2021/03/22 10:02:03;;;;;;;9.55;8.48;;;;;;;4.57;60.12;99586.09;1716211;81;21161;-45
2021/03/22 10:04:35;;;;;;;10.15;8.90;;;;;;;4.57;59.77;99591.38;1613124;86;21209;-46
2021/03/22 10:07:27;;;;;;;10.13;8.63;;;;;;;4.61;59.42;99587.64;1797289;78;23109;-46
2021/03/22 10:10:00;;;;;;;10.68;8.83;;;;;;;4.57;59.37;99591.38;1773960;78;21172;-42
2021/03/22 10:12:35;;;;;;;11.00;8.50;;;;;;;4.57;59.53;99596.66;1758031;80;21134;-45
2021/03/22 10:15:13;;;;;;;12.73;10.63;;;;;;;4.58;59.45;99598.35;1729012;80;21177;-45
2021/03/22 10:18:03;;;;;;;10.80;8.73;;;;;;;4.62;59.72;99598.61;1754595;80;21118;-44
2021/03/22 10:20:44;;;;;;;11.17;9.27;;;;;;;4.66;59.62;99594.88;1758590;80;21610;-47
2021/03/22 10:23:28;;;;;;;11.05;9.10;;;;;;;4.66;59.20;99597.52;1755004;80;21555;-48
2021/03/22 10:26:11;;;;;;;13.93;11.22;;;;;;;4.63;59.61;99594.55;1755708;80;21691;-48
2021/03/22 10:28:41;;;;;;;13.45;11.08;;;;;;;4.62;60.41;99594.64;1752213;80;21121;-46
2021/03/22 10:31:18;;;;;;;13.62;10.65;;;;;;;4.46;60.36;99599.34;1755716;80;21393;-50
2021/03/22 10:33:57;;;;;;;13.45;9.73;;;;;;;4.38;60.16;99593.54;1728169;80;21665;-45
2021/03/22 10:36:32;;;;;;;14.70;10.95;;;;;;;4.37;60.57;99593.62;1755022;80;21178;-46
2021/03/22 10:39:01;;;;;;;12.60;10.68;;;;;;;4.38;59.51;99591.38;1751619;80;21141;-47
2021/03/22 10:41:40;;;;;;;11.95;9.43;;;;;;;4.33;59.40;99594.22;1753810;80;21653;-48
2021/03/22 10:44:25;;;;;;;13.32;10.85;;;;;;;4.31;59.73;99593.46;1753390;80;21156;-44
2021/03/22 10:47:15;;;;;;;14.05;10.82;;;;;;;4.29;60.22;99595.31;1754292;80;21149;-46
2021/03/22 10:50:07;;;;;;;14.23;11.88;;;;;;;4.23;60.01;99589.83;1753909;80;21146;-43
2021/03/22 10:52:38;;;;;;;12.88;10.08;;;;;;;4.17;60.04;99590.59;1643610;85;21203;-46
2021/03/22 10:55:09;;;;;;;13.00;10.30;;;;;;;4.15;60.18;99581.42;1643506;85;21181;-44
2021/03/22 10:57:38;;;;;;;13.50;10.00;;;;;;;4.20;60.04;99581.20;1638444;85;21354;-44
2021/03/22 11:00:30;;;;;;;15.20;11.43;;;;;;;4.28;59.98;99585.66;1639366;85;21353;-43
2021/03/22 11:02:58;;;;;;;12.40;9.58;;;;;;;4.33;59.94;99585.86;1640636;85;21177;-45
2021/03/22 11:05:36;;;;;;;10.82;9.05;;;;;;;4.39;59.73;99575.94;1637888;85;21332;-46
2021/03/22 11:08:33;;;;;;;14.10;11.12;;;;;;;4.54;59.66;99565.50;1782943;78;22918;-51
2021/03/22 11:11:08;;;;;;;13.10;10.45;;;;;;;4.62;59.48;99563.80;1727453;80;21210;-45
2021/03/22 11:16:48;;;;;;;;;;;;;;;4.71;58.56;99568.66;1700780;82;21606;-52
2021/03/22 11:19:27;;;;;;;12.93;9.93;;;;;;;4.72;58.10;99567.70;1675225;83;20178;-52
2021/03/22 11:22:00;;;;;;;13.03;11.20;;;;;;;4.70;58.80;99566.92;1715882;81;21311;-53
2021/03/22 11:24:38;;;;;;;12.20;10.90;;;;;;;4.65;58.87;99574.69;1718832;80;21149;-52
2021/03/22 11:27:11;;;;;;;14.45;11.05;;;;;;;4.61;59.35;99581.91;1738206;81;21592;-46
2021/03/22 11:29:56;;;;;;;14.58;11.68;;;;;;;4.52;59.11;99580.55;1730692;80;21141;-51
2021/03/22 11:32:34;;;;;;;16.52;12.85;;;;;;;4.42;59.79;99583.70;1723895;81;21181;-54
2021/03/22 11:35:21;;;;;;;16.02;12.28;;;;;;;4.28;60.98;99582.58;1728580;81;21294;-51
2021/03/22 11:37:51;;;;;;;14.87;11.60;;;;;;;4.18;60.81;99580.42;1683408;83;21196;-52
2021/03/22 11:40:24;;;;;;;15.32;11.30;;;;;;;4.09;61.54;99581.25;1664779;84;21189;-48
2021/03/22 11:43:00;;;;;;;13.35;10.60;;;;;;;4.06;61.64;99588.45;1661444;83;22407;-49
2021/03/22 11:45:35;;;;;;;12.15;9.35;;;;;;;4.04;61.53;99585.03;1722129;81;21125;-47
2021/03/22 11:48:29;;;;;;;13.62;11.08;;;;;;;4.05;60.59;99586.26;1733486;81;21248;-56
2021/03/22 11:51:03;;;;;;;14.95;12.50;;;;;;;4.06;60.54;99587.98;1723254;81;21163;-48
2021/03/22 11:53:31;;;;;;;15.53;12.70;;;;;;;3.98;61.13;99584.85;1718553;81;21177;-50
2021/03/22 11:56:24;;;;;;;12.03;10.75;;;;;;;3.89;62.32;99583.94;1714057;82;21169;-54
2021/03/22 11:58:50;;;;;;;12.58;11.28;;;;;;;3.80;61.72;99590.94;1723257;81;21122;-47
2021/03/22 12:01:27;;;;;;;15.75;12.95;;;;;;;3.76;62.51;99589.37;1697042;83;21190;-49
2021/03/22 12:04:08;;;;;;;12.70;11.38;;;;;;;3.76;62.98;99594.66;1706067;81;21189;-45
2021/03/22 12:06:58;;;;;;;;;;;;;;;3.69;63.13;99594.91;1724678;81;21628;-47
2021/03/22 12:09:27;;;;;;;16.20;12.35;;;;;;;3.65;63.64;99589.83;1743954;81;20209;-46
2021/03/22 12:11:55;;;;;;;15.93;13.95;;;;;;;3.63;63.96;99598.30;1733308;81;21166;-50
2021/03/22 12:14:25;;;;;;;17.98;13.90;;;;;;;3.64;64.72;99601.31;1725852;81;21130;-48
2021/03/22 12:17:07;;;;;;;17.37;14.00;;;;;;;3.61;64.42;99595.72;1723468;82;21174;-51
2021/03/22 12:19:38;;;;;;;15.88;12.75;;;;;;;3.59;64.51;99598.88;1729730;81;21164;-49
2021/03/22 12:22:15;;;;;;;18.07;14.60;;;;;;;3.51;63.87;99602.78;1726602;81;21137;-49
2021/03/22 12:24:43;;;;;;;16.30;12.85;;;;;;;3.45;63.70;99598.61;1729430;80;21162;-51
2021/03/22 12:27:14;;;;;;;13.48;12.03;;;;;;;3.41;64.46;99598.36;1726692;80;21343;-49
2021/03/22 12:29:48;;;;;;;17.77;15.55;;;;;;;3.46;64.63;99597.70;1785848;77;28020;-46